METAR Data

Data at: 0850 UTC 17 Nov 2018

METAR for:KORD (Chicago/O'Hare Intl, IL, US)
Text:KORD 170751Z 02003KT 8SM -SN FEW016 OVC055 01/M02 A3017 RMK AO2 SNB45 SLP222 P0000 T00061017 $
Temperature: 0.6°C ( 33°F)
Dewpoint: -1.7°C ( 29°F) [RH = 85%]
Pressure (altimeter):30.17 inches Hg (1021.8 mb) [Sea level pressure: 1022.2 mb]
Winds:from the NNE (20 degrees) at 3 MPH (3 knots; 1.5 m/s)
Visibility: 8 sm ( 13 km)
Ceiling:5500 feet AGL
Clouds: few clouds at 1600 feet AGL, overcast cloud deck at 5500 feet AGL
Weather:-SN (light snow)
QC Flag:SOME DATA ABOVE MAY BE INACCURATE!!!"$" is an indication the sensor requires maintenance.